Time;durP1;ratioP1;P1;durP2;ratioP2;P2;SDS_P1;SDS_P2;PMS_P1;PMS_P2;Temp;Humidity;BMP_temperature;BMP_pressure;BME280_temperature;BME280_humidity;BME280_pressure;Samples;Min_cycle;Max_cycle;Signal;HPM_P1;HPM_P2
2021/06/20 00:00:54;;;;;;;18.38;7.38;;;15.40;99.90;;;;;;5000168;28;20028;-62
2021/06/20 00:03:20;;;;;;;14.82;6.28;;;15.50;99.90;;;;;;5032142;28;20032;-62
2021/06/20 00:06:00;;;;;;;17.10;6.68;;;15.40;99.90;;;;;;5034658;28;20067;-62
2021/06/20 00:08:26;;;;;;;14.18;6.82;;;15.50;99.90;;;;;;5030349;28;20044;-62
2021/06/20 00:10:53;;;;;;;15.40;5.90;;;15.50;99.90;;;;;;5035133;28;20064;-62
2021/06/20 00:13:20;;;;;;;15.10;8.10;;;15.40;99.90;;;;;;5034543;28;20078;-62
2021/06/20 00:15:48;;;;;;;12.40;6.47;;;15.40;99.90;;;;;;5033358;28;20037;-62
2021/06/20 00:18:15;;;;;;;16.42;7.00;;;15.40;99.90;;;;;;5035102;28;20021;-62
2021/06/20 00:20:46;;;;;;;14.32;7.30;;;15.40;99.90;;;;;;5030570;28;20791;-62
2021/06/20 00:23:12;;;;;;;12.63;6.97;;;15.40;99.90;;;;;;5033778;28;20544;-62
2021/06/20 00:25:39;;;;;;;18.02;8.05;;;15.40;99.90;;;;;;5033977;28;20379;-62
2021/06/20 00:28:06;;;;;;;13.68;6.43;;;15.40;99.90;;;;;;5031881;28;20037;-62
2021/06/20 00:30:34;;;;;;;14.32;6.53;;;15.40;99.90;;;;;;5035850;28;20033;-62
2021/06/20 00:33:00;;;;;;;13.52;7.13;;;15.40;99.90;;;;;;5031608;28;20652;-62
2021/06/20 00:35:27;;;;;;;13.95;6.72;;;15.40;99.90;;;;;;5033662;28;20040;-62
2021/06/20 00:37:52;;;;;;;16.00;7.10;;;15.40;99.90;;;;;;5034677;28;20212;-62
2021/06/20 00:40:19;;;;;;;13.23;7.47;;;15.40;99.90;;;;;;5032031;28;20029;-62
2021/06/20 00:42:46;;;;;;;14.38;7.38;;;15.30;99.90;;;;;;5032982;28;20036;-62
2021/06/20 00:45:15;;;;;;;14.23;6.95;;;15.30;99.90;;;;;;5033969;28;20468;-62
2021/06/20 00:47:41;;;;;;;16.02;7.93;;;15.30;99.90;;;;;;5016533;28;20060;-62
2021/06/20 00:50:08;;;;;;;12.27;6.50;;;15.30;99.90;;;;;;5031973;28;20023;-62
2021/06/20 00:52:38;;;;;;;14.55;7.35;;;15.30;99.90;;;;;;5030061;28;20041;-63
2021/06/20 00:55:06;;;;;;;15.00;6.93;;;15.30;99.90;;;;;;5031207;28;20029;-62
2021/06/20 00:57:33;;;;;;;19.83;7.03;;;15.30;99.90;;;;;;5029371;28;20163;-62
2021/06/20 01:00:00;;;;;;;17.90;8.32;;;15.40;99.90;;;;;;5036138;28;20020;-62
2021/06/20 01:02:26;;;;;;;14.98;7.60;;;15.30;99.90;;;;;;5036875;28;20029;-62
2021/06/20 01:04:52;;;;;;;16.90;7.00;;;15.30;99.90;;;;;;5037070;28;20036;-62
2021/06/20 01:07:20;;;;;;;14.70;7.10;;;15.30;99.90;;;;;;5037819;28;20366;-62
2021/06/20 01:09:46;;;;;;;12.98;5.97;;;15.40;99.90;;;;;;5034644;28;20079;-62
2021/06/20 01:12:14;;;;;;;15.65;6.43;;;15.40;99.90;;;;;;5035841;28;20029;-62
2021/06/20 01:14:41;;;;;;;15.32;6.80;;;15.30;99.90;;;;;;5035611;28;20029;-62
2021/06/20 01:17:08;;;;;;;12.55;6.68;;;15.20;99.90;;;;;;5036750;28;20021;-62
2021/06/20 01:19:35;;;;;;;16.50;7.85;;;15.20;99.90;;;;;;5037515;28;20044;-62
2021/06/20 01:22:34;;;;;;;13.07;6.75;;;15.20;99.90;;;;;;5011205;28;20212;-62
2021/06/20 01:25:05;;;;;;;14.45;7.15;;;15.10;99.90;;;;;;5015301;28;20059;-62
2021/06/20 01:27:34;;;;;;;15.57;7.47;;;15.10;99.90;;;;;;5034034;28;20042;-62
2021/06/20 01:30:03;;;;;;;13.32;6.72;;;15.10;99.90;;;;;;5035717;28;20116;-62
2021/06/20 01:32:30;;;;;;;14.77;6.78;;;15.20;99.90;;;;;;5033893;28;20041;-62
2021/06/20 01:34:56;;;;;;;20.60;7.05;;;15.20;99.90;;;;;;5034682;28;20029;-62
2021/06/20 01:37:22;;;;;;;13.00;6.68;;;15.20;99.90;;;;;;5034188;28;20029;-62
2021/06/20 01:39:48;;;;;;;12.43;6.78;;;15.20;99.90;;;;;;5033968;28;20029;-62
2021/06/20 01:42:15;;;;;;;16.50;6.93;;;15.10;99.90;;;;;;5034798;28;20079;-62
2021/06/20 01:44:59;;;;;;;12.80;6.55;;;15.10;99.90;;;;;;5035857;28;20025;-62
2021/06/20 01:47:27;;;;;;;16.40;7.72;;;15.00;99.90;;;;;;5035273;28;20041;-62
2021/06/20 01:49:55;;;;;;;13.25;6.45;;;15.10;99.90;;;;;;5036638;28;20029;-62
2021/06/20 01:52:23;;;;;;;15.00;7.18;;;15.10;99.90;;;;;;5035377;28;20063;-62
2021/06/20 01:54:53;;;;;;;11.23;6.35;;;15.10;99.90;;;;;;5032291;28;20029;-62
2021/06/20 01:57:30;;;;;;;13.07;6.15;;;15.10;99.90;;;;;;5034646;28;20316;-62
2021/06/20 01:59:57;;;;;;;11.82;6.35;;;15.10;99.90;;;;;;5034132;28;20037;-62
2021/06/20 02:02:25;;;;;;;10.00;6.32;;;15.00;99.90;;;;;;5036382;28;20389;-62
2021/06/20 02:04:52;;;;;;;13.10;6.60;;;14.90;99.90;;;;;;5031434;28;20469;-62
2021/06/20 02:07:19;;;;;;;17.13;6.05;;;15.00;99.90;;;;;;5038068;28;20543;-63
2021/06/20 02:09:44;;;;;;;12.02;5.68;;;15.00;99.90;;;;;;5035259;28;20032;-62
2021/06/20 02:12:11;;;;;;;16.13;6.13;;;15.00;99.90;;;;;;5036755;28;20036;-62
2021/06/20 02:14:38;;;;;;;15.35;6.80;;;15.00;99.90;;;;;;5033617;28;20041;-62
2021/06/20 02:17:28;;;;;;;12.85;5.93;;;14.90;99.90;;;;;;5035229;28;20032;-62
2021/06/20 02:19:57;;;;;;;13.20;5.60;;;14.90;99.90;;;;;;5025065;28;20463;-62
2021/06/20 02:22:23;;;;;;;11.63;6.25;;;14.90;99.90;;;;;;5032908;28;20045;-61
2021/06/20 02:24:50;;;;;;;15.05;6.40;;;14.90;99.90;;;;;;5035452;28;20079;-62
2021/06/20 02:27:16;;;;;;;13.70;5.75;;;14.80;99.90;;;;;;5034549;28;20262;-62
2021/06/20 02:29:45;;;;;;;10.43;5.95;;;14.80;99.90;;;;;;5034253;28;20128;-62
2021/06/20 02:32:11;;;;;;;12.02;5.75;;;14.80;99.90;;;;;;5012627;28;20472;-62
2021/06/20 02:34:39;;;;;;;18.38;5.93;;;14.70;99.90;;;;;;5035443;28;20028;-61
2021/06/20 02:37:06;;;;;;;10.68;6.03;;;14.70;99.90;;;;;;5034305;28;20052;-62
2021/06/20 02:39:32;;;;;;;13.45;6.07;;;14.80;99.90;;;;;;5034272;28;20668;-62
2021/06/20 02:41:58;;;;;;;11.88;6.07;;;14.80;99.90;;;;;;5035336;28;20123;-62
2021/06/20 02:44:24;;;;;;;11.00;5.97;;;14.70;99.90;;;;;;5033722;28;20052;-62
2021/06/20 02:46:50;;;;;;;13.60;6.28;;;14.70;99.90;;;;;;5035583;28;20727;-62
2021/06/20 02:49:16;;;;;;;12.20;5.57;;;14.80;99.90;;;;;;5034352;28;20472;-61
2021/06/20 02:51:44;;;;;;;11.00;6.13;;;14.80;99.90;;;;;;5033556;28;20043;-62
2021/06/20 02:54:13;;;;;;;10.45;5.78;;;14.80;99.90;;;;;;5032599;28;20412;-61
2021/06/20 02:56:39;;;;;;;14.75;5.93;;;14.70;99.90;;;;;;5034537;28;20044;-61
2021/06/20 02:59:05;;;;;;;13.50;6.05;;;14.60;99.90;;;;;;5035299;28;20029;-62
2021/06/20 03:01:32;;;;;;;14.18;6.28;;;14.60;99.90;;;;;;5034278;28;20027;-62
2021/06/20 03:03:57;;;;;;;13.02;5.90;;;14.50;99.90;;;;;;5034591;28;20037;-62
2021/06/20 03:06:24;;;;;;;12.55;5.88;;;14.50;99.90;;;;;;5034778;28;20041;-61
2021/06/20 03:08:49;;;;;;;15.02;5.50;;;14.40;99.90;;;;;;5033326;28;20028;-62
2021/06/20 03:11:16;;;;;;;10.75;5.60;;;14.40;99.90;;;;;;5035019;28;20443;-62
2021/06/20 03:13:42;;;;;;;12.45;5.90;;;14.50;99.90;;;;;;5035536;28;20087;-62
2021/06/20 03:16:08;;;;;;;12.93;6.20;;;14.50;99.90;;;;;;5034412;28;20036;-62
2021/06/20 03:18:33;;;;;;;15.38;6.13;;;14.50;99.90;;;;;;5035513;28;20055;-61
2021/06/20 03:20:59;;;;;;;12.13;5.10;;;14.60;99.90;;;;;;5031154;28;20022;-62
2021/06/20 03:23:25;;;;;;;10.52;5.82;;;14.50;99.90;;;;;;5033771;28;20025;-62
2021/06/20 03:25:51;;;;;;;10.80;6.40;;;14.50;99.90;;;;;;5032022;28;20417;-61
2021/06/20 03:28:17;;;;;;;13.80;6.43;;;14.50;99.90;;;;;;5033253;28;20142;-61
2021/06/20 03:30:43;;;;;;;12.27;6.53;;;14.50;99.90;;;;;;5034797;28;20033;-61
2021/06/20 03:33:09;;;;;;;11.77;6.18;;;14.50;99.90;;;;;;5031586;28;20354;-61
2021/06/20 03:35:35;;;;;;;16.33;5.97;;;14.60;99.90;;;;;;5033303;28;20633;-62
2021/06/20 03:38:01;;;;;;;9.00;6.25;;;14.50;99.90;;;;;;5008235;28;20434;-62
2021/06/20 03:40:27;;;;;;;11.60;6.10;;;14.50;99.90;;;;;;5036273;28;20013;-61
2021/06/20 03:42:53;;;;;;;11.27;5.60;;;14.50;99.90;;;;;;5032389;28;20090;-62
2021/06/20 03:45:19;;;;;;;12.82;5.55;;;14.50;99.90;;;;;;5035609;28;20625;-62
2021/06/20 03:47:45;;;;;;;11.43;5.72;;;14.40;99.90;;;;;;5031287;28;20041;-61
2021/06/20 03:50:11;;;;;;;15.70;6.30;;;14.40;99.90;;;;;;5033499;28;20451;-61
2021/06/20 03:52:38;;;;;;;11.02;5.80;;;14.40;99.90;;;;;;5030562;28;20032;-61
2021/06/20 03:55:07;;;;;;;13.90;6.53;;;14.40;99.90;;;;;;5032119;28;20415;-64
2021/06/20 03:57:33;;;;;;;13.02;5.78;;;14.40;99.90;;;;;;5032339;28;20036;-61
2021/06/20 03:59:59;;;;;;;10.82;6.55;;;14.40;99.90;;;;;;5036073;28;20025;-62
2021/06/20 04:02:25;;;;;;;14.52;7.07;;;14.40;99.90;;;;;;5032394;28;20033;-62
2021/06/20 04:04:50;;;;;;;11.27;6.72;;;14.20;99.90;;;;;;5032967;28;20458;-62
2021/06/20 04:07:17;;;;;;;12.35;6.90;;;14.20;99.90;;;;;;5035200;28;20039;-62
2021/06/20 04:09:44;;;;;;;12.15;6.90;;;14.20;99.90;;;;;;5034568;28;20132;-62
2021/06/20 04:12:11;;;;;;;15.77;6.50;;;14.20;99.90;;;;;;5033396;28;20033;-62
2021/06/20 04:14:38;;;;;;;15.13;6.95;;;14.20;99.90;;;;;;5033872;28;20032;-62
2021/06/20 04:17:05;;;;;;;17.42;7.15;;;14.20;99.90;;;;;;5029085;28;20034;-62
2021/06/20 04:19:31;;;;;;;13.45;6.25;;;14.30;99.90;;;;;;5028379;28;20036;-62
2021/06/20 04:21:57;;;;;;;17.48;7.20;;;14.30;99.90;;;;;;5030273;28;20556;-63
2021/06/20 04:24:23;;;;;;;14.82;6.78;;;14.40;99.90;;;;;;5029863;28;20031;-62
2021/06/20 04:26:49;;;;;;;11.27;6.90;;;14.30;99.90;;;;;;5033744;28;20089;-62
2021/06/20 04:29:15;;;;;;;15.50;7.70;;;14.30;99.90;;;;;;5030468;28;20394;-62
2021/06/20 04:31:41;;;;;;;18.83;8.27;;;14.40;99.90;;;;;;5031128;28;20488;-63
2021/06/20 04:34:07;;;;;;;15.18;7.32;;;14.40;99.90;;;;;;5033270;28;20029;-62
2021/06/20 04:36:33;;;;;;;19.80;7.90;;;14.40;99.90;;;;;;5031867;28;20038;-63
2021/06/20 04:38:58;;;;;;;11.55;6.97;;;14.40;99.90;;;;;;5027690;28;20410;-62
2021/06/20 04:41:25;;;;;;;12.27;7.25;;;14.40;99.90;;;;;;5032926;28;21003;-63
2021/06/20 04:46:27;;;;;;;22.05;7.55;;;14.30;99.90;;;;;;5037558;28;20037;-63
2021/06/20 04:48:58;;;;;;;15.23;7.10;;;14.20;99.90;;;;;;5036096;28;20403;-63
2021/06/20 04:51:23;;;;;;;16.83;7.95;;;14.30;99.90;;;;;;5028933;28;20127;-63
2021/06/20 04:53:49;;;;;;;14.65;8.02;;;14.30;99.90;;;;;;5033005;28;20391;-63
2021/06/20 04:56:15;;;;;;;17.98;7.97;;;14.50;99.90;;;;;;5034307;28;20021;-64
2021/06/20 04:58:42;;;;;;;18.13;8.27;;;14.60;99.90;;;;;;5036867;28;22362;-63
2021/06/20 05:01:08;;;;;;;20.85;7.65;;;14.70;99.90;;;;;;5033765;28;20031;-63
2021/06/20 05:03:33;;;;;;;17.45;8.00;;;14.70;99.90;;;;;;5023917;28;20119;-63
2021/06/20 05:06:00;;;;;;;18.20;7.57;;;14.80;99.90;;;;;;5037947;28;20524;-63
2021/06/20 05:08:25;;;;;;;18.35;7.18;;;14.90;99.90;;;;;;5035177;28;20056;-64
2021/06/20 05:10:53;;;;;;;15.60;7.28;;;15.00;99.90;;;;;;5036344;28;20778;-62
2021/06/20 05:13:22;;;;;;;12.40;7.22;;;15.00;99.90;;;;;;5034327;28;20504;-61
2021/06/20 05:15:48;;;;;;;15.02;6.97;;;15.00;99.90;;;;;;5031461;28;20453;-61
2021/06/20 05:18:14;;;;;;;14.88;7.30;;;15.00;99.90;;;;;;5027187;28;20140;-62
2021/06/20 05:20:41;;;;;;;23.60;11.20;;;15.00;99.90;;;;;;5034914;28;20056;-62
2021/06/20 05:23:08;;;;;;;16.25;8.43;;;14.90;99.90;;;;;;5035514;28;20037;-62
2021/06/20 05:25:33;;;;;;;21.15;9.73;;;14.90;99.90;;;;;;5011460;28;20060;-62
2021/06/20 05:27:59;;;;;;;18.70;8.70;;;14.90;99.90;;;;;;5031865;28;20033;-62
2021/06/20 05:30:26;;;;;;;16.60;7.55;;;14.80;99.90;;;;;;5036828;28;20437;-61
2021/06/20 05:32:53;;;;;;;13.85;7.70;;;14.80;99.90;;;;;;5033593;28;20136;-62
2021/06/20 05:35:20;;;;;;;16.00;7.40;;;14.70;99.90;;;;;;5037838;28;20690;-62
2021/06/20 05:37:48;;;;;;;13.38;7.63;;;14.70;99.90;;;;;;5024010;28;20059;-62
2021/06/20 05:40:15;;;;;;;21.70;9.07;;;14.80;99.90;;;;;;5025935;28;20488;-62
2021/06/20 05:42:41;;;;;;;17.40;8.05;;;14.80;99.90;;;;;;5023047;28;20457;-62
2021/06/20 05:45:07;;;;;;;14.68;7.43;;;14.70;99.90;;;;;;5026412;28;20110;-62
2021/06/20 05:47:33;;;;;;;12.23;7.03;;;14.70;99.90;;;;;;5023915;28;20038;-62
2021/06/20 05:50:00;;;;;;;13.45;7.82;;;14.70;99.90;;;;;;5030045;28;20889;-62
2021/06/20 05:52:27;;;;;;;19.27;8.68;;;14.70;99.90;;;;;;5023752;28;20036;-62
2021/06/20 05:54:53;;;;;;;14.55;8.60;;;14.70;99.90;;;;;;5034253;28;20032;-62
2021/06/20 05:57:22;;;;;;;14.10;7.63;;;14.70;99.90;;;;;;5026909;28;20537;-62
2021/06/20 05:59:48;;;;;;;20.15;9.02;;;14.60;99.90;;;;;;5019826;28;20095;-62
2021/06/20 06:02:14;;;;;;;16.20;8.05;;;14.60;99.90;;;;;;5017769;28;20105;-62
2021/06/20 06:04:44;;;;;;;15.25;8.18;;;14.70;99.90;;;;;;5016421;28;20105;-62
2021/06/20 06:07:10;;;;;;;14.75;8.38;;;14.70;99.90;;;;;;5016292;28;20559;-62
2021/06/20 06:09:36;;;;;;;14.00;7.88;;;14.60;99.90;;;;;;5015132;28;20040;-62
2021/06/20 06:12:06;;;;;;;16.50;7.68;;;14.70;99.90;;;;;;5016397;28;20037;-62
2021/06/20 06:14:32;;;;;;;;;;;14.50;99.90;;;;;;5022989;28;20025;-62
2021/06/20 06:16:58;;;;;;;13.25;7.57;;;14.60;99.90;;;;;;5026058;28;19928;-62
2021/06/20 06:19:24;;;;;;;17.33;8.55;;;14.60;99.90;;;;;;5023295;28;20565;-62
2021/06/20 06:21:50;;;;;;;15.95;8.27;;;14.50;99.90;;;;;;5027960;28;20025;-62
2021/06/20 06:24:15;;;;;;;16.48;8.18;;;14.60;99.90;;;;;;5029186;28;20040;-62
2021/06/20 06:26:41;;;;;;;18.85;7.47;;;14.60;99.90;;;;;;5031122;28;20781;-62
2021/06/20 06:29:07;;;;;;;16.75;8.68;;;14.60;99.90;;;;;;5029834;28;20028;-62
2021/06/20 06:31:36;;;;;;;18.83;8.20;;;14.50;99.90;;;;;;5030289;28;20033;-62
2021/06/20 06:34:02;;;;;;;16.02;8.07;;;14.50;99.90;;;;;;5029727;28;20408;-62
2021/06/20 06:36:28;;;;;;;19.40;9.05;;;14.50;99.90;;;;;;5029525;28;20067;-62
2021/06/20 06:38:54;;;;;;;20.80;9.10;;;14.50;99.90;;;;;;5028662;28;20033;-61
2021/06/20 06:41:20;;;;;;;18.27;8.35;;;14.50;99.90;;;;;;5028054;28;20559;-62
2021/06/20 06:43:46;;;;;;;18.67;8.57;;;14.50;99.90;;;;;;5031781;28;20128;-62
2021/06/20 06:46:12;;;;;;;14.43;8.77;;;14.30;99.90;;;;;;5036349;28;20045;-62
2021/06/20 06:48:38;;;;;;;17.38;9.27;;;14.40;99.90;;;;;;5029440;28;20112;-62
2021/06/20 06:51:04;;;;;;;19.38;8.45;;;14.30;99.90;;;;;;5029457;28;20029;-62
2021/06/20 06:53:30;;;;;;;20.20;9.35;;;14.20;99.90;;;;;;5031447;28;20057;-62
2021/06/20 06:55:57;;;;;;;15.30;9.43;;;14.20;99.90;;;;;;5031721;28;20124;-62
2021/06/20 06:58:23;;;;;;;19.80;8.57;;;14.10;99.90;;;;;;5032929;28;20544;-64
2021/06/20 07:00:49;;;;;;;18.10;9.38;;;14.10;99.90;;;;;;5025473;28;20037;-63
2021/06/20 07:03:15;;;;;;;19.48;10.65;;;14.00;99.90;;;;;;5031155;28;20021;-65
2021/06/20 07:05:41;;;;;;;17.60;9.70;;;13.90;99.90;;;;;;5032999;28;20060;-65
2021/06/20 07:08:06;;;;;;;24.08;10.68;;;13.90;99.90;;;;;;5031178;28;20490;-65
2021/06/20 07:10:33;;;;;;;20.17;9.70;;;13.90;99.90;;;;;;5028185;28;20324;-67
2021/06/20 07:12:58;;;;;;;22.40;11.18;;;13.90;99.90;;;;;;5029589;28;20064;-67
2021/06/20 07:15:25;;;;;;;19.33;10.25;;;13.80;99.90;;;;;;5030494;28;20104;-66
2021/06/20 07:17:51;;;;;;;26.67;10.30;;;13.70;99.90;;;;;;5025275;28;20032;-66
2021/06/20 07:20:17;;;;;;;18.55;10.57;;;13.80;99.90;;;;;;5028366;28;20029;-66
2021/06/20 07:22:45;;;;;;;19.27;10.18;;;13.80;99.90;;;;;;5030116;28;20049;-65
2021/06/20 07:25:14;;;;;;;23.33;10.73;;;13.80;99.90;;;;;;5030756;28;20076;-65
2021/06/20 07:27:40;;;;;;;20.17;11.05;;;13.80;99.90;;;;;;5033143;28;20531;-64
2021/06/20 07:30:11;;;;;;;16.17;9.68;;;13.90;99.90;;;;;;5033692;28;20029;-64
2021/06/20 07:32:38;;;;;;;17.70;10.52;;;13.90;99.90;;;;;;5034675;28;20510;-64
2021/06/20 07:35:05;;;;;;;18.02;10.45;;;13.80;99.90;;;;;;5010246;28;20031;-63
2021/06/20 07:37:31;;;;;;;14.65;9.55;;;13.90;99.90;;;;;;5032591;28;20044;-64
2021/06/20 07:39:57;;;;;;;16.38;10.18;;;13.90;99.90;;;;;;5029393;28;20473;-65
2021/06/20 07:42:23;;;;;;;18.42;10.35;;;13.90;99.90;;;;;;5034966;28;20094;-65
2021/06/20 07:44:49;;;;;;;16.92;9.88;;;14.00;99.90;;;;;;5028535;28;20025;-64
2021/06/20 07:47:15;;;;;;;19.30;9.57;;;14.00;99.90;;;;;;5023384;28;20162;-65
2021/06/20 07:49:40;;;;;;;17.75;10.50;;;14.00;99.90;;;;;;5029426;28;20496;-65
2021/06/20 07:52:06;;;;;;;16.17;9.15;;;14.00;99.90;;;;;;5030039;28;20029;-65
2021/06/20 07:54:32;;;;;;;19.77;10.40;;;13.90;99.90;;;;;;5029562;28;20029;-64
2021/06/20 07:56:58;;;;;;;24.75;10.75;;;13.90;99.90;;;;;;5030760;28;20120;-63
2021/06/20 07:59:23;;;;;;;21.98;10.75;;;13.80;99.90;;;;;;5030465;28;20052;-64
2021/06/20 08:01:49;;;;;;;19.48;11.05;;;13.80;99.90;;;;;;5029567;28;20435;-63
2021/06/20 08:04:15;;;;;;;17.08;9.82;;;13.70;99.90;;;;;;5030810;28;20029;-63
2021/06/20 08:06:41;;;;;;;21.50;11.25;;;13.80;99.90;;;;;;5028397;28;20074;-63
2021/06/20 08:09:07;;;;;;;16.33;10.32;;;13.80;99.90;;;;;;5025087;28;20551;-63
2021/06/20 08:11:34;;;;;;;15.05;9.73;;;13.70;99.90;;;;;;5032069;28;20090;-64
2021/06/20 08:14:02;;;;;;;17.13;10.30;;;13.80;99.90;;;;;;5032130;28;20040;-64
2021/06/20 08:16:28;;;;;;;15.80;10.85;;;13.80;99.90;;;;;;5030926;28;20040;-64
2021/06/20 08:18:54;;;;;;;15.15;9.23;;;13.90;99.90;;;;;;5006980;28;20044;-65
2021/06/20 08:21:20;;;;;;;13.45;10.05;;;14.00;99.90;;;;;;5030909;28;20025;-65
2021/06/20 08:23:46;;;;;;;18.45;10.95;;;14.10;99.90;;;;;;5026169;28;20591;-64
2021/06/20 08:26:12;;;;;;;17.80;11.13;;;14.20;99.90;;;;;;5027459;28;20159;-65
2021/06/20 08:28:38;;;;;;;15.65;11.07;;;14.20;99.90;;;;;;5024201;28;20074;-65
2021/06/20 08:31:04;;;;;;;13.32;9.30;;;14.30;99.90;;;;;;5009995;28;20073;-64
2021/06/20 08:33:30;;;;;;;13.00;9.93;;;14.30;99.90;;;;;;5009889;28;20120;-65
2021/06/20 08:35:56;;;;;;;17.98;10.43;;;14.40;99.90;;;;;;5032697;28;20478;-65
2021/06/20 08:38:22;;;;;;;18.25;11.38;;;14.40;99.90;;;;;;5025016;28;20021;-65
2021/06/20 08:40:48;;;;;;;16.23;10.35;;;14.50;99.90;;;;;;5017612;28;20700;-65
2021/06/20 08:43:14;;;;;;;15.35;11.32;;;14.70;99.90;;;;;;5024634;28;20025;-66
2021/06/20 08:45:40;;;;;;;15.30;11.10;;;14.70;99.90;;;;;;5031320;28;20452;-65
2021/06/20 08:48:09;;;;;;;19.25;12.40;;;14.90;99.90;;;;;;5025220;28;20396;-65
2021/06/20 08:50:35;;;;;;;19.40;12.77;;;14.90;99.90;;;;;;5024430;28;20528;-65
2021/06/20 08:53:01;;;;;;;16.98;11.35;;;15.10;99.90;;;;;;5029696;28;20139;-64
2021/06/20 08:55:27;;;;;;;16.33;11.25;;;15.20;99.90;;;;;;5026394;28;20039;-65
2021/06/20 08:58:00;;;;;;;17.30;12.23;;;15.30;99.90;;;;;;5023571;28;21456;-65
2021/06/20 09:00:26;;;;;;;22.42;14.10;;;15.40;99.90;;;;;;5031149;28;20032;-65
2021/06/20 09:03:00;;;;;;;17.83;12.48;;;15.50;99.90;;;;;;5030072;28;20026;-65
2021/06/20 09:05:26;;;;;;;18.13;13.23;;;15.60;99.90;;;;;;5027638;28;20057;-65
2021/06/20 09:07:56;;;;;;;18.50;12.93;;;15.80;99.90;;;;;;5031741;28;20512;-64
2021/06/20 09:10:25;;;;;;;17.75;12.63;;;15.90;99.90;;;;;;5025479;28;20032;-65
2021/06/20 09:12:52;;;;;;;;;;;16.00;99.90;;;;;;5031682;28;20187;-65
2021/06/20 09:15:24;;;;;;;16.80;12.63;;;16.10;99.90;;;;;;5025254;28;20383;-65
2021/06/20 09:17:55;;;;;;;18.50;12.00;;;16.10;99.90;;;;;;5023288;28;20399;-65
2021/06/20 09:20:41;;;;;;;18.35;14.10;;;16.20;99.90;;;;;;5022781;28;20472;-66
2021/06/20 09:23:13;;;;;;;19.20;12.50;;;16.30;99.90;;;;;;5029748;28;20755;-65
2021/06/20 09:25:41;;;;;;;17.50;12.13;;;16.40;99.90;;;;;;5027946;28;20052;-65
2021/06/20 09:28:10;;;;;;;20.27;10.63;;;16.60;99.90;;;;;;5025656;28;20094;-65
2021/06/20 09:30:45;;;;;;;16.27;11.20;;;16.70;99.90;;;;;;5028299;28;20483;-65
2021/06/20 09:33:11;;;;;;;17.00;11.48;;;16.70;99.90;;;;;;5033029;28;20025;-65
2021/06/20 09:35:42;;;;;;;15.60;10.95;;;16.80;99.90;;;;;;5029738;28;20461;-65
2021/06/20 09:38:14;;;;;;;13.90;10.13;;;17.00;99.90;;;;;;5028379;28;20069;-64
2021/06/20 09:40:40;;;;;;;13.07;10.75;;;17.00;99.90;;;;;;5031425;28;20438;-64
2021/06/20 09:43:14;;;;;;;15.10;11.07;;;17.20;99.90;;;;;;5029845;28;20033;-65
2021/06/20 09:45:43;;;;;;;12.57;9.95;;;17.30;99.90;;;;;;5023695;28;20169;-66
2021/06/20 09:48:19;;;;;;;13.40;10.20;;;17.50;99.90;;;;;;5030006;28;20049;-65
2021/06/20 09:50:45;;;;;;;13.25;9.82;;;17.60;99.90;;;;;;5031616;28;20390;-65
2021/06/20 09:53:10;;;;;;;13.93;10.00;;;17.50;99.90;;;;;;5032956;28;20029;-66
2021/06/20 09:55:36;;;;;;;13.55;10.40;;;17.60;99.90;;;;;;5018793;28;20199;-65
2021/06/20 09:58:03;;;;;;;12.23;10.23;;;17.70;99.90;;;;;;5034241;28;20037;-65
2021/06/20 10:00:41;;;;;;;12.98;10.00;;;17.70;99.90;;;;;;5028824;28;20074;-63
2021/06/20 10:03:08;;;;;;;13.77;10.27;;;17.90;99.90;;;;;;5016419;28;20488;-62
2021/06/20 10:05:33;;;;;;;13.75;10.50;;;18.00;99.90;;;;;;5036072;28;20036;-63
2021/06/20 10:08:02;;;;;;;13.07;10.32;;;18.10;99.90;;;;;;5032555;28;20056;-65
2021/06/20 10:10:30;;;;;;;12.85;11.15;;;17.90;99.90;;;;;;5032697;28;20488;-64
2021/06/20 10:12:56;;;;;;;13.10;11.30;;;17.80;99.90;;;;;;5015439;28;20037;-64
2021/06/20 10:15:22;;;;;;;14.57;11.38;;;17.80;99.90;;;;;;5037210;28;20598;-64
2021/06/20 10:17:58;;;;;;;12.95;10.80;;;17.80;99.90;;;;;;5031171;28;20090;-64
2021/06/20 10:20:31;;;;;;;15.00;10.38;;;17.80;99.90;;;;;;5035583;28;20025;-64
2021/06/20 10:22:57;;;;;;;13.07;10.02;;;17.80;99.90;;;;;;5029117;28;20106;-64
2021/06/20 10:25:35;;;;;;;14.05;9.07;;;17.80;99.90;;;;;;5034354;28;20500;-62
2021/06/20 10:28:06;;;;;;;12.38;9.75;;;17.90;99.90;;;;;;5029640;28;20197;-62
2021/06/20 10:30:34;;;;;;;11.70;9.35;;;17.80;99.90;;;;;;5030278;28;20497;-62
2021/06/20 10:33:11;;;;;;;13.82;10.18;;;17.80;99.90;;;;;;5030729;28;20109;-62
2021/06/20 10:35:38;;;;;;;12.10;10.05;;;17.80;99.90;;;;;;5033599;28;20439;-62
2021/06/20 10:38:04;;;;;;;16.13;11.15;;;17.90;99.90;;;;;;5030442;28;20036;-62
2021/06/20 10:40:31;;;;;;;15.48;10.63;;;17.90;99.90;;;;;;5036477;28;20484;-62
2021/06/20 10:43:00;;;;;;;13.38;10.27;;;17.90;99.90;;;;;;5032213;28;20044;-62
2021/06/20 10:45:38;;;;;;;14.18;11.00;;;18.00;99.90;;;;;;5033338;28;20048;-63
2021/06/20 10:48:17;;;;;;;17.20;12.52;;;18.00;99.90;;;;;;4990255;28;20037;-62
2021/06/20 10:50:50;;;;;;;15.40;11.75;;;18.00;99.90;;;;;;5030842;28;20025;-65
2021/06/20 10:53:17;;;;;;;18.25;13.07;;;18.00;99.90;;;;;;5030770;28;20494;-62
2021/06/20 10:55:57;;;;;;;17.25;13.30;;;18.00;99.90;;;;;;5029892;28;20103;-63
2021/06/20 10:58:26;;;;;;;18.42;14.35;;;18.00;99.90;;;;;;5028825;28;20068;-64
2021/06/20 11:01:07;;;;;;;17.73;14.43;;;18.10;99.90;;;;;;5031911;28;20564;-62
2021/06/20 11:03:35;;;;;;;16.00;13.50;;;18.20;99.90;;;;;;5005968;28;20562;-63
2021/06/20 11:06:07;;;;;;;18.80;13.93;;;18.30;99.90;;;;;;5028659;28;20539;-62
2021/06/20 11:08:37;;;;;;;18.48;14.35;;;18.40;99.90;;;;;;5026473;28;20045;-62
2021/06/20 11:11:10;;;;;;;;;;;18.40;99.90;;;;;;5028989;28;20551;-62
2021/06/20 11:13:37;;;;;;;17.65;12.95;;;18.50;99.90;;;;;;5027995;28;20012;-62
2021/06/20 11:16:12;;;;;;;18.27;13.90;;;18.50;99.90;;;;;;5029058;28;20051;-62
2021/06/20 11:18:39;;;;;;;23.10;14.48;;;18.50;99.90;;;;;;5028049;28;20041;-62
2021/06/20 11:21:05;;;;;;;17.45;14.55;;;18.60;99.90;;;;;;5032229;28;20366;-63
2021/06/20 11:23:31;;;;;;;19.40;13.35;;;18.70;99.90;;;;;;5026383;28;20031;-63
2021/06/20 11:26:00;;;;;;;21.40;14.43;;;18.80;99.90;;;;;;5028086;28;20049;-63
2021/06/20 11:28:26;;;;;;;18.95;14.15;;;19.00;99.90;;;;;;5026145;28;20028;-65
2021/06/20 11:31:06;;;;;;;14.95;12.85;;;19.10;99.90;;;;;;5025487;28;20091;-67
2021/06/20 11:33:33;;;;;;;15.43;12.45;;;19.20;99.90;;;;;;5030389;28;20075;-67
2021/06/20 11:35:59;;;;;;;16.58;12.77;;;19.30;99.90;;;;;;5027930;28;20032;-67
2021/06/20 11:38:37;;;;;;;15.57;12.25;;;19.40;99.90;;;;;;5031648;28;20075;-67
2021/06/20 11:41:18;;;;;;;14.98;12.15;;;19.50;99.90;;;;;;5033737;28;20032;-67
2021/06/20 11:43:53;;;;;;;15.90;13.10;;;19.50;99.90;;;;;;5032367;28;20122;-67
2021/06/20 11:46:21;;;;;;;16.95;12.98;;;19.60;99.90;;;;;;5034086;28;20032;-68
2021/06/20 11:48:59;;;;;;;14.48;12.82;;;19.80;99.90;;;;;;5035213;28;20041;-67
2021/06/20 11:51:33;;;;;;;18.13;14.55;;;20.20;99.90;;;;;;5035163;28;20495;-67
2021/06/20 11:54:08;;;;;;;18.73;13.98;;;20.80;99.90;;;;;;5033160;28;20037;-67
2021/06/20 11:56:35;;;;;;;16.70;13.60;;;21.30;99.90;;;;;;5036215;28;20353;-67
2021/06/20 11:59:01;;;;;;;16.75;14.27;;;21.40;99.90;;;;;;5034806;28;20118;-67
2021/06/20 12:01:42;;;;;;;17.15;14.18;;;21.20;99.90;;;;;;5030870;28;20120;-68
2021/06/20 12:04:14;;;;;;;19.98;15.45;;;21.40;99.90;;;;;;5030424;28;20025;-67
2021/06/20 12:06:40;;;;;;;18.80;15.20;;;21.40;99.90;;;;;;5029534;28;20393;-69
2021/06/20 12:09:08;;;;;;;22.40;15.18;;;21.40;99.90;;;;;;5031961;28;20185;-60
2021/06/20 12:11:35;;;;;;;21.00;16.35;;;21.30;99.90;;;;;;5025903;28;20499;-59
2021/06/20 12:14:03;;;;;;;24.00;16.98;;;21.20;99.90;;;;;;5030267;28;20579;-60
2021/06/20 12:16:28;;;;;;;26.50;17.63;;;21.20;99.90;;;;;;5013194;28;20052;-59
2021/06/20 12:18:56;;;;;;;23.20;18.42;;;21.30;99.90;;;;;;5032475;28;20174;-59
2021/06/20 12:21:28;;;;;;;24.67;20.30;;;21.20;99.90;;;;;;5029839;28;20080;-60
2021/06/20 12:23:56;;;;;;;30.45;23.63;;;21.00;99.90;;;;;;5032166;28;20039;-59
2021/06/20 12:26:30;;;;;;;31.13;24.40;;;20.90;99.90;;;;;;5030964;28;20045;-60
2021/06/20 12:28:58;;;;;;;35.78;25.58;;;20.70;99.90;;;;;;5030893;28;20597;-62
2021/06/20 12:31:25;;;;;;;34.97;26.20;;;20.60;99.90;;;;;;5029321;28;20539;-61
2021/06/20 12:34:18;;;;;;;32.78;23.67;;;20.60;99.90;;;;;;5028962;28;20035;-61
2021/06/20 12:36:44;;;;;;;36.75;25.52;;;20.40;99.90;;;;;;5012875;28;20098;-62
2021/06/20 12:39:09;;;;;;;28.80;22.27;;;20.20;99.90;;;;;;5026198;28;20554;-61